Time;durP1;ratioP1;P1;durP2;ratioP2;P2;SDS_P1;SDS_P2;PMS_P1;PMS_P2;Temp;Humidity;BMP_temperature;BMP_pressure;BME280_temperature;BME280_humidity;BME280_pressure;Samples;Min_cycle;Max_cycle;Signal;HPM_P1;HPM_P2
2022/06/27 00:01:06;;;;;;;4.70;4.30;;;17.80;99.90;;;;;;5036650;28;20201;-39
2022/06/27 00:03:32;;;;;;;4.43;4.13;;;17.70;99.90;;;;;;5029945;28;20765;-39
2022/06/27 00:05:57;;;;;;;5.57;5.17;;;17.80;99.90;;;;;;5030443;28;20202;-39
2022/06/27 00:08:23;;;;;;;5.43;4.93;;;17.80;99.90;;;;;;5029499;28;20210;-39
2022/06/27 00:10:49;;;;;;;5.30;4.83;;;17.70;99.90;;;;;;5030242;28;20194;-39
2022/06/27 00:13:15;;;;;;;5.40;5.00;;;17.80;99.90;;;;;;5029741;28;20196;-40
2022/06/27 00:15:40;;;;;;;5.30;4.90;;;17.80;99.90;;;;;;5030237;28;20813;-39
2022/06/27 00:18:06;;;;;;;6.00;5.50;;;17.70;99.90;;;;;;5029253;28;20269;-39
2022/06/27 00:20:32;;;;;;;5.47;5.07;;;17.70;99.90;;;;;;5030709;28;20195;-39
2022/06/27 00:22:58;;;;;;;5.67;5.07;;;17.70;99.90;;;;;;5029857;28;20194;-39
2022/06/27 00:25:24;;;;;;;5.93;5.50;;;17.70;99.90;;;;;;5029813;28;20883;-38
2022/06/27 00:27:49;;;;;;;6.60;6.00;;;17.70;99.90;;;;;;5029404;28;20222;-39
2022/06/27 00:30:15;;;;;;;5.33;4.93;;;17.70;99.90;;;;;;5029712;28;20194;-39
2022/06/27 00:32:41;;;;;;;5.70;5.20;;;17.70;99.90;;;;;;5028658;28;20193;-39
2022/06/27 00:35:08;;;;;;;7.07;5.60;;;17.80;99.90;;;;;;5029908;28;20186;-41
2022/06/27 00:37:34;;;;;;;5.47;4.97;;;17.70;99.90;;;;;;5029173;28;20425;-39
2022/06/27 00:40:00;;;;;;;5.20;4.80;;;17.70;99.90;;;;;;5029640;28;20954;-38
2022/06/27 00:42:26;;;;;;;6.30;4.70;;;17.70;99.90;;;;;;5029849;28;20440;-39
2022/06/27 00:44:52;;;;;;;5.00;4.70;;;17.70;99.90;;;;;;5028317;28;20428;-39
2022/06/27 00:47:18;;;;;;;5.43;5.03;;;17.70;99.90;;;;;;5027642;28;20182;-38
2022/06/27 00:49:44;;;;;;;5.03;4.63;;;17.60;99.90;;;;;;5029868;28;20201;-39
2022/06/27 00:52:12;;;;;;;4.67;4.37;;;17.60;99.90;;;;;;5029666;28;20519;-41
2022/06/27 00:54:41;;;;;;;5.20;4.80;;;17.50;99.90;;;;;;5029574;28;20440;-39
2022/06/27 00:57:07;;;;;;;5.03;4.30;;;17.50;99.90;;;;;;5028951;28;20425;-39
2022/06/27 00:59:34;;;;;;;5.03;4.57;;;17.60;99.90;;;;;;5032803;28;20453;-39
2022/06/27 01:02:01;;;;;;;6.33;4.80;;;17.60;99.90;;;;;;5033397;28;20427;-39
2022/06/27 01:04:28;;;;;;;5.60;5.10;;;17.60;99.90;;;;;;5032305;28;20444;-39
2022/06/27 01:06:54;;;;;;;6.20;5.63;;;17.50;99.90;;;;;;5032902;28;20428;-39
2022/06/27 01:09:21;;;;;;;5.93;5.43;;;17.50;99.90;;;;;;5033376;28;20488;-39
2022/06/27 01:11:47;;;;;;;6.07;5.67;;;17.50;99.90;;;;;;5033420;28;20467;-39
2022/06/27 01:14:14;;;;;;;7.03;6.47;;;17.50;99.90;;;;;;5033268;28;20421;-39
2022/06/27 01:16:40;;;;;;;6.33;5.83;;;17.50;99.90;;;;;;5032846;28;20848;-39
2022/06/27 01:19:10;;;;;;;6.70;6.10;;;17.50;99.90;;;;;;5033193;28;20831;-38
2022/06/27 01:21:43;;;;;;;7.33;6.63;;;17.50;99.90;;;;;;5033207;28;20869;-40
2022/06/27 01:24:09;;;;;;;7.93;6.77;;;17.50;99.90;;;;;;5033152;28;20487;-39
2022/06/27 01:26:35;;;;;;;7.20;6.60;;;17.50;99.90;;;;;;5032714;28;20420;-39
2022/06/27 01:29:01;;;;;;;7.47;6.87;;;17.40;99.90;;;;;;5032794;28;20610;-39
2022/06/27 01:31:27;;;;;;;6.93;6.43;;;17.50;99.90;;;;;;5032967;28;20206;-39
2022/06/27 01:33:53;;;;;;;7.03;6.40;;;17.50;99.90;;;;;;5032938;28;20198;-39
2022/06/27 01:39:07;;;;;;;9.83;6.83;;;17.50;99.90;;;;;;5032669;28;20460;-38
2022/06/27 01:41:32;;;;;;;7.53;6.83;;;17.50;99.90;;;;;;5032846;28;20483;-39
2022/06/27 01:43:59;;;;;;;7.27;6.77;;;17.50;99.90;;;;;;5032269;28;20437;-38
2022/06/27 01:46:24;;;;;;;8.13;7.43;;;17.50;99.90;;;;;;5032533;28;20305;-39
2022/06/27 01:48:50;;;;;;;7.40;6.80;;;17.50;99.90;;;;;;5031981;28;20555;-39
2022/06/27 01:51:17;;;;;;;8.23;7.53;;;17.60;99.90;;;;;;5032580;28;20252;-39
2022/06/27 01:53:43;;;;;;;6.77;6.27;;;17.50;99.90;;;;;;5032779;28;20203;-38
2022/06/27 01:56:09;;;;;;;7.40;6.80;;;17.60;99.90;;;;;;5033622;28;20820;-39
2022/06/27 01:58:34;;;;;;;8.50;7.73;;;17.70;99.90;;;;;;5026455;28;20194;-38
2022/06/27 02:01:01;;;;;;;8.80;7.70;;;17.70;99.90;;;;;;5038170;28;20289;-38
2022/06/27 02:03:26;;;;;;;8.50;7.80;;;17.60;99.90;;;;;;5032095;28;20185;-39
2022/06/27 02:05:52;;;;;;;9.50;8.70;;;17.60;99.90;;;;;;5032582;28;20503;-39
2022/06/27 02:08:22;;;;;;;9.67;8.87;;;17.60;99.90;;;;;;5031607;28;20218;-39
2022/06/27 02:10:49;;;;;;;8.63;7.93;;;17.60;99.90;;;;;;5031260;28;20429;-39
2022/06/27 02:13:14;;;;;;;8.53;7.73;;;17.60;99.90;;;;;;5032129;28;20540;-38
2022/06/27 02:16:07;;;;;;;8.50;7.80;;;17.50;99.90;;;;;;5032238;28;20540;-39
2022/06/27 02:18:34;;;;;;;8.40;7.70;;;17.60;99.90;;;;;;5031481;28;20444;-39
2022/06/27 02:21:00;;;;;;;8.63;7.90;;;17.60;99.90;;;;;;5032789;28;21121;-39
2022/06/27 02:23:26;;;;;;;9.07;8.27;;;17.70;99.90;;;;;;5031985;28;20429;-39
2022/06/27 02:25:53;;;;;;;9.30;8.50;;;17.60;99.90;;;;;;5036080;28;21054;-39
2022/06/27 02:28:22;;;;;;;8.40;7.47;;;17.70;99.90;;;;;;5030953;28;20510;-39
2022/06/27 02:30:48;;;;;;;8.83;7.47;;;17.60;99.90;;;;;;5030882;28;20425;-39
2022/06/27 02:33:14;;;;;;;8.50;7.70;;;17.60;99.90;;;;;;5036308;28;20508;-39
2022/06/27 02:35:42;;;;;;;8.30;7.70;;;17.60;99.90;;;;;;5031806;28;20421;-39
2022/06/27 02:38:11;;;;;;;9.53;8.13;;;17.70;99.90;;;;;;5031228;28;20425;-40
2022/06/27 02:40:39;;;;;;;8.47;7.77;;;17.70;99.90;;;;;;5031675;28;20437;-38
2022/06/27 02:43:07;;;;;;;8.97;8.20;;;17.70;99.90;;;;;;5030318;28;20483;-39
2022/06/27 02:45:38;;;;;;;9.10;8.30;;;17.60;99.90;;;;;;5030643;28;21199;-39
2022/06/27 02:48:05;;;;;;;10.53;9.40;;;17.70;99.90;;;;;;5031021;28;20519;-39
2022/06/27 02:50:32;;;;;;;10.53;9.03;;;17.70;99.90;;;;;;5031133;28;20459;-39
2022/06/27 02:53:07;;;;;;;9.20;8.40;;;17.60;99.90;;;;;;5031521;28;20546;-39
2022/06/27 02:55:38;;;;;;;10.27;9.37;;;17.60;99.90;;;;;;5031307;28;20432;-39
2022/06/27 02:58:10;;;;;;;10.50;9.60;;;17.70;99.90;;;;;;5031066;28;20780;-39
2022/06/27 03:00:39;;;;;;;9.13;8.43;;;17.80;99.90;;;;;;5031228;28;20460;-39
2022/06/27 03:03:07;;;;;;;11.57;9.80;;;17.80;99.90;;;;;;5031347;28;20425;-38
2022/06/27 03:05:33;;;;;;;9.50;8.60;;;17.80;99.90;;;;;;5031235;28;20551;-39
2022/06/27 03:07:58;;;;;;;9.53;8.73;;;17.90;99.90;;;;;;5030217;28;20583;-39
2022/06/27 03:10:24;;;;;;;11.57;9.47;;;17.80;99.90;;;;;;5031490;28;20224;-39
2022/06/27 03:12:51;;;;;;;9.60;8.73;;;17.70;99.90;;;;;;5031091;28;20421;-39
2022/06/27 03:15:16;;;;;;;8.83;8.03;;;17.80;99.90;;;;;;5029867;28;20428;-39
2022/06/27 03:17:42;;;;;;;9.27;8.30;;;17.70;99.90;;;;;;5030376;28;20440;-39
2022/06/27 03:20:08;;;;;;;8.03;7.30;;;17.80;99.90;;;;;;5031136;28;20192;-39
2022/06/27 03:22:34;;;;;;;8.13;7.40;;;17.70;99.90;;;;;;5030548;28;20195;-39
2022/06/27 03:25:00;;;;;;;9.60;8.70;;;17.70;99.90;;;;;;5030895;28;20443;-38
2022/06/27 03:27:25;;;;;;;8.40;7.70;;;17.70;99.90;;;;;;5030136;28;20735;-39
2022/06/27 03:29:51;;;;;;;9.00;7.53;;;17.70;99.90;;;;;;5030768;28;20186;-39
2022/06/27 03:32:17;;;;;;;8.83;7.93;;;17.60;99.90;;;;;;5030750;28;20202;-40
2022/06/27 03:34:42;;;;;;;8.77;7.87;;;17.60;99.90;;;;;;5030784;28;20273;-39
2022/06/27 03:37:08;;;;;;;9.20;8.37;;;17.60;99.90;;;;;;5029899;28;20788;-39
2022/06/27 03:39:34;;;;;;;9.30;7.87;;;17.60;99.90;;;;;;5030865;28;20198;-39
2022/06/27 03:42:00;;;;;;;8.30;7.40;;;17.60;99.90;;;;;;5030692;28;20232;-39
2022/06/27 03:44:25;;;;;;;7.97;7.20;;;17.70;99.90;;;;;;5029686;28;20422;-39
2022/06/27 03:46:51;;;;;;;7.90;7.20;;;17.60;99.90;;;;;;5030013;28;20194;-39
2022/06/27 03:52:01;;;;;;;7.83;7.10;;;17.60;99.90;;;;;;5030268;28;20198;-41
2022/06/27 03:54:27;;;;;;;7.87;7.23;;;17.60;99.90;;;;;;5030419;28;20440;-39
2022/06/27 03:56:55;;;;;;;6.73;6.13;;;17.60;99.90;;;;;;5029574;28;20190;-39
2022/06/27 03:59:20;;;;;;;8.97;8.07;;;17.70;99.90;;;;;;5030172;28;20237;-39
2022/06/27 04:01:46;;;;;;;8.17;7.37;;;17.70;99.90;;;;;;5030065;28;20429;-39
2022/06/27 04:04:12;;;;;;;8.03;6.50;;;17.60;99.90;;;;;;5030142;28;20194;-39
2022/06/27 04:06:37;;;;;;;7.30;6.60;;;17.50;99.90;;;;;;5029661;28;20247;-39
2022/06/27 04:09:03;;;;;;;7.50;6.80;;;17.50;99.90;;;;;;5029979;28;20218;-39
2022/06/27 04:11:29;;;;;;;7.73;7.03;;;17.50;99.90;;;;;;5029922;28;20205;-38
2022/06/27 04:13:55;;;;;;;7.03;6.43;;;17.60;99.90;;;;;;5030257;28;20187;-39
2022/06/27 04:16:21;;;;;;;7.40;6.80;;;17.60;99.90;;;;;;5029892;28;20927;-39
2022/06/27 04:18:46;;;;;;;8.53;7.30;;;17.60;99.90;;;;;;5029273;28;20220;-38
2022/06/27 04:21:12;;;;;;;7.23;6.37;;;17.70;99.90;;;;;;5033955;28;20201;-39
2022/06/27 04:23:40;;;;;;;7.93;7.23;;;17.60;99.90;;;;;;5039351;28;20190;-39
2022/06/27 04:26:06;;;;;;;7.40;6.70;;;17.60;99.90;;;;;;5030469;28;20770;-39
2022/06/27 04:28:32;;;;;;;8.80;7.90;;;17.60;99.90;;;;;;5034251;28;20555;-40
2022/06/27 04:30:57;;;;;;;8.10;7.40;;;17.50;99.90;;;;;;5029975;28;20194;-39
2022/06/27 04:33:23;;;;;;;7.87;7.07;;;17.50;99.90;;;;;;5028919;28;20186;-39
2022/06/27 04:35:50;;;;;;;8.07;7.27;;;17.50;99.90;;;;;;5023258;28;20194;-38
2022/06/27 04:38:18;;;;;;;8.27;7.57;;;17.40;99.90;;;;;;5029203;28;20240;-39
2022/06/27 04:40:44;;;;;;;8.10;7.30;;;17.40;99.90;;;;;;5025419;28;20430;-39
2022/06/27 04:43:11;;;;;;;8.93;8.03;;;17.30;99.90;;;;;;5026052;28;20495;-39
2022/06/27 04:45:37;;;;;;;10.90;8.00;;;17.30;99.90;;;;;;5028621;28;20429;-39
2022/06/27 04:48:07;;;;;;;8.33;7.23;;;17.40;99.90;;;;;;5028628;28;20979;-39
2022/06/27 04:50:34;;;;;;;8.70;7.27;;;17.30;99.90;;;;;;5029572;28;20189;-38
2022/06/27 04:53:03;;;;;;;8.70;7.80;;;17.30;99.90;;;;;;5020632;28;21399;-39
2022/06/27 04:55:29;;;;;;;8.70;7.90;;;17.30;99.90;;;;;;5029466;28;20441;-38
2022/06/27 04:57:55;;;;;;;9.00;8.20;;;17.30;99.90;;;;;;5029081;28;20429;-39
2022/06/27 05:00:20;;;;;;;9.43;8.40;;;17.30;99.90;;;;;;5029285;28;20468;-39
2022/06/27 05:02:46;;;;;;;9.47;8.50;;;17.30;99.90;;;;;;5029498;28;20195;-39
2022/06/27 05:05:12;;;;;;;9.47;8.57;;;17.30;99.90;;;;;;5029509;28;20722;-38
2022/06/27 05:07:38;;;;;;;9.50;8.60;;;17.30;99.90;;;;;;5028912;28;20677;-39
2022/06/27 05:10:06;;;;;;;9.63;8.30;;;17.30;99.90;;;;;;5029534;28;20433;-38
2022/06/27 05:12:32;;;;;;;9.37;8.47;;;17.30;99.90;;;;;;5029549;28;20555;-39
2022/06/27 05:14:57;;;;;;;9.60;7.80;;;17.30;99.90;;;;;;5029508;28;20508;-39
2022/06/27 05:17:24;;;;;;;8.60;7.80;;;17.40;99.90;;;;;;5028588;28;20194;-39
2022/06/27 05:19:50;;;;;;;10.93;9.30;;;17.40;99.90;;;;;;5029524;28;20269;-39
2022/06/27 05:22:16;;;;;;;11.43;10.30;;;17.50;99.90;;;;;;5029971;28;20571;-38
2022/06/27 05:24:42;;;;;;;10.47;9.57;;;17.50;99.90;;;;;;5028119;28;20524;-39
2022/06/27 05:27:09;;;;;;;11.57;10.37;;;17.50;99.90;;;;;;5028668;28;20567;-39
2022/06/27 05:29:38;;;;;;;11.13;10.13;;;17.60;99.90;;;;;;5029007;28;20218;-39
2022/06/27 05:32:04;;;;;;;11.47;10.43;;;17.50;99.90;;;;;;5019999;28;20433;-38
2022/06/27 05:34:30;;;;;;;11.40;10.07;;;17.50;99.90;;;;;;5028609;28;20440;-39
2022/06/27 05:36:56;;;;;;;11.40;10.30;;;17.60;99.90;;;;;;5028663;28;20425;-40
2022/06/27 05:39:21;;;;;;;11.27;10.10;;;17.60;99.90;;;;;;5025991;28;20229;-39
2022/06/27 05:41:48;;;;;;;11.07;10.07;;;17.70;99.90;;;;;;5024101;28;20593;-39
2022/06/27 05:44:14;;;;;;;11.27;10.27;;;17.70;99.90;;;;;;5028996;28;20186;-39
2022/06/27 05:46:41;;;;;;;10.37;9.40;;;17.70;99.90;;;;;;5029150;28;20437;-38
2022/06/27 05:49:08;;;;;;;12.87;11.40;;;17.70;99.90;;;;;;5032349;28;20468;-39
2022/06/27 05:51:34;;;;;;;11.67;10.47;;;17.80;99.90;;;;;;5032685;28;20436;-38
2022/06/27 05:54:01;;;;;;;11.37;10.17;;;18.00;99.90;;;;;;5032769;28;20512;-39
2022/06/27 05:56:30;;;;;;;11.43;10.33;;;18.10;99.90;;;;;;5032533;28;20429;-39
2022/06/27 05:58:57;;;;;;;12.67;11.40;;;18.10;99.90;;;;;;5031704;28;20440;-38
2022/06/27 06:01:25;;;;;;;11.27;10.10;;;18.20;99.90;;;;;;5030195;28;20448;-38
2022/06/27 06:03:52;;;;;;;12.70;11.40;;;18.20;99.90;;;;;;5032256;28;20425;-39
2022/06/27 06:06:18;;;;;;;12.27;11.00;;;18.20;99.90;;;;;;5029152;28;20435;-39
2022/06/27 06:08:45;;;;;;;11.93;10.80;;;18.20;99.90;;;;;;5028756;28;20870;-39
2022/06/27 06:11:13;;;;;;;11.20;10.20;;;18.20;99.90;;;;;;5032185;28;20183;-39
2022/06/27 06:13:39;;;;;;;12.53;11.23;;;18.20;99.90;;;;;;5032510;28;20437;-39
2022/06/27 06:16:06;;;;;;;10.90;9.90;;;18.20;99.90;;;;;;5031985;28;20480;-38
2022/06/27 06:18:33;;;;;;;10.97;9.87;;;18.10;99.90;;;;;;5031621;28;20483;-38
2022/06/27 06:20:59;;;;;;;11.93;10.83;;;18.10;99.90;;;;;;5032048;28;20433;-38
2022/06/27 06:23:25;;;;;;;10.90;10.00;;;18.10;99.90;;;;;;5036121;28;20799;-39
2022/06/27 06:25:52;;;;;;;12.00;10.90;;;18.00;99.90;;;;;;5031444;28;20479;-39
2022/06/27 06:28:18;;;;;;;10.83;9.83;;;18.00;99.90;;;;;;5030978;28;20564;-38
2022/06/27 06:30:44;;;;;;;11.93;10.43;;;18.00;99.90;;;;;;5031296;28;20421;-39
2022/06/27 06:33:10;;;;;;;13.70;12.50;;;17.90;99.90;;;;;;5031746;28;20983;-39
2022/06/27 06:35:36;;;;;;;12.97;11.67;;;17.80;99.90;;;;;;5030152;28;20190;-39
2022/06/27 06:38:02;;;;;;;11.87;10.60;;;17.80;99.90;;;;;;5030858;28;21030;-39
2022/06/27 06:40:29;;;;;;;14.47;13.07;;;17.90;99.90;;;;;;5031684;28;20197;-39
2022/06/27 06:42:55;;;;;;;13.50;12.10;;;17.90;99.90;;;;;;5031778;28;20437;-39
2022/06/27 06:45:21;;;;;;;18.00;13.50;;;17.90;99.90;;;;;;5030766;28;20998;-39
2022/06/27 06:47:49;;;;;;;14.30;12.13;;;17.90;99.90;;;;;;5029476;28;20685;-39
2022/06/27 06:50:18;;;;;;;14.60;13.20;;;17.90;99.90;;;;;;5031656;28;20452;-39
2022/06/27 06:52:51;;;;;;;14.93;13.53;;;17.80;99.90;;;;;;5031475;28;20479;-38
2022/06/27 06:55:21;;;;;;;13.97;12.77;;;17.90;99.90;;;;;;5031101;28;20864;-39
2022/06/27 06:57:48;;;;;;;15.03;13.53;;;17.90;99.90;;;;;;5030584;28;20958;-39
2022/06/27 07:00:15;;;;;;;13.70;12.40;;;17.90;99.90;;;;;;5031262;28;20523;-39
2022/06/27 07:02:40;;;;;;;13.47;12.20;;;17.90;99.90;;;;;;5031393;28;20428;-39
2022/06/27 07:05:11;;;;;;;15.90;12.90;;;18.00;99.90;;;;;;5023595;28;20537;-39
2022/06/27 07:07:44;;;;;;;15.10;13.50;;;17.90;99.90;;;;;;5013249;28;20654;-39
2022/06/27 07:10:11;;;;;;;14.20;12.80;;;17.90;99.90;;;;;;5026459;28;20449;-39
2022/06/27 07:12:40;;;;;;;16.47;14.83;;;17.90;99.90;;;;;;5021526;28;20941;-39
2022/06/27 07:15:09;;;;;;;16.17;14.60;;;17.90;99.90;;;;;;5017910;28;20425;-39
2022/06/27 07:17:40;;;;;;;15.90;14.30;;;18.00;99.90;;;;;;5030516;28;20433;-38
2022/06/27 07:20:07;;;;;;;14.70;13.30;;;18.00;99.90;;;;;;5030686;28;20941;-39
2022/06/27 07:22:34;;;;;;;17.40;15.67;;;18.00;99.90;;;;;;5030744;28;20425;-39
2022/06/27 07:25:00;;;;;;;21.57;15.27;;;17.90;99.90;;;;;;5031139;28;20421;-39
2022/06/27 07:27:25;;;;;;;17.97;15.83;;;18.00;99.90;;;;;;5030213;28;20512;-41
2022/06/27 07:29:52;;;;;;;18.23;16.33;;;18.00;99.90;;;;;;5030904;28;20225;-39
2022/06/27 07:32:18;;;;;;;17.37;15.57;;;18.00;99.90;;;;;;5030798;28;20209;-39
2022/06/27 07:34:44;;;;;;;18.47;16.60;;;17.90;99.90;;;;;;5030597;28;20924;-39
2022/06/27 07:37:10;;;;;;;17.67;15.97;;;17.90;99.90;;;;;;5030073;28;20499;-39
2022/06/27 07:39:36;;;;;;;18.07;16.23;;;17.90;99.90;;;;;;5030783;28;20434;-39
2022/06/27 07:42:01;;;;;;;18.37;16.47;;;17.90;99.90;;;;;;5030493;28;20425;-39
2022/06/27 07:44:27;;;;;;;18.10;15.87;;;17.90;99.90;;;;;;5029310;28;20784;-40
2022/06/27 07:46:53;;;;;;;19.63;17.53;;;18.00;99.90;;;;;;5029730;28;20191;-39
2022/06/27 07:49:19;;;;;;;21.60;19.40;;;18.00;99.90;;;;;;5030007;28;20222;-39
2022/06/27 07:51:47;;;;;;;18.63;16.73;;;18.00;99.90;;;;;;5030221;28;20221;-39
2022/06/27 07:54:13;;;;;;;20.40;18.30;;;18.00;99.90;;;;;;5030535;28;20541;-39
2022/06/27 07:56:39;;;;;;;18.33;16.43;;;18.00;99.90;;;;;;5029891;28;20422;-40
2022/06/27 07:59:06;;;;;;;18.70;16.87;;;18.00;99.90;;;;;;5030107;28;20476;-39
2022/06/27 08:01:32;;;;;;;21.47;18.43;;;18.00;99.90;;;;;;5030370;28;20437;-39
2022/06/27 08:03:58;;;;;;;21.90;19.00;;;18.10;99.90;;;;;;5029832;28;20468;-39
2022/06/27 08:06:27;;;;;;;20.43;18.47;;;18.10;99.90;;;;;;5030265;28;21294;-39
2022/06/27 08:08:57;;;;;;;22.13;19.77;;;18.10;99.90;;;;;;5028549;28;20255;-40
2022/06/27 08:11:26;;;;;;;23.70;21.20;;;18.10;99.90;;;;;;5030142;28;20418;-39
2022/06/27 08:13:54;;;;;;;22.20;20.00;;;18.00;99.90;;;;;;5030078;28;20776;-39
2022/06/27 08:16:21;;;;;;;21.93;18.30;;;17.90;99.90;;;;;;5029857;28;20436;-39
2022/06/27 08:18:48;;;;;;;22.97;19.63;;;17.90;99.90;;;;;;5029424;28;20432;-40
2022/06/27 08:21:17;;;;;;;24.73;20.97;;;18.00;99.90;;;;;;5031040;28;20527;-39
2022/06/27 08:23:44;;;;;;;19.60;17.60;;;18.00;99.90;;;;;;5030014;28;20460;-39
2022/06/27 08:26:12;;;;;;;23.67;19.33;;;18.10;99.90;;;;;;5030020;28;20502;-39
2022/06/27 08:28:39;;;;;;;22.23;20.03;;;18.20;99.90;;;;;;5029339;28;20556;-39
2022/06/27 08:31:07;;;;;;;27.37;22.80;;;18.30;99.90;;;;;;5029954;28;20432;-39
2022/06/27 08:33:33;;;;;;;26.10;21.93;;;18.30;99.90;;;;;;5029989;28;20984;-39
2022/06/27 08:36:00;;;;;;;35.60;24.17;;;18.30;99.90;;;;;;5029834;28;20429;-39
2022/06/27 08:38:26;;;;;;;28.70;22.27;;;18.30;99.90;;;;;;5029254;28;20440;-40
2022/06/27 08:40:55;;;;;;;25.97;23.10;;;18.40;99.90;;;;;;5029680;28;20433;-39
2022/06/27 08:43:23;;;;;;;30.97;25.80;;;18.40;99.90;;;;;;5029816;28;20190;-39
2022/06/27 08:45:53;;;;;;;29.47;25.40;;;18.40;99.90;;;;;;5028440;28;20421;-39
2022/06/27 08:48:19;;;;;;;31.87;27.87;;;18.30;99.90;;;;;;5029142;28;20503;-39
2022/06/27 08:50:48;;;;;;;30.30;26.40;;;18.30;99.90;;;;;;5029786;28;20818;-39
2022/06/27 08:53:14;;;;;;;28.33;23.90;;;18.40;99.90;;;;;;5029870;28;20960;-39
2022/06/27 08:55:46;;;;;;;29.90;24.77;;;18.40;99.90;;;;;;5029800;28;20452;-41
2022/06/27 08:58:13;;;;;;;30.20;27.00;;;18.40;99.90;;;;;;5028843;28;20501;-39
2022/06/27 09:00:45;;;;;;;24.80;22.30;;;18.50;99.90;;;;;;5029540;28;20540;-39
2022/06/27 09:03:17;;;;;;;27.17;23.73;;;18.50;99.90;;;;;;5029474;28;20465;-39
2022/06/27 09:05:53;;;;;;;24.13;21.80;;;18.60;99.90;;;;;;5029750;28;20433;-39
2022/06/27 09:08:20;;;;;;;25.30;22.60;;;18.60;99.90;;;;;;5028633;28;20507;-39
2022/06/27 09:10:46;;;;;;;24.80;22.23;;;18.70;99.90;;;;;;5029609;28;20425;-39
2022/06/27 09:13:15;;;;;;;25.20;22.47;;;18.70;99.90;;;;;;5029448;28;20429;-39
2022/06/27 09:15:49;;;;;;;24.30;20.90;;;18.70;99.90;;;;;;5029671;28;20794;-39
2022/06/27 09:18:22;;;;;;;26.10;21.67;;;18.70;99.90;;;;;;5028858;28;20451;-39
2022/06/27 09:21:01;;;;;;;30.53;22.57;;;18.70;99.90;;;;;;5033310;28;20429;-40
2022/06/27 09:23:50;;;;;;;22.37;19.80;;;18.60;99.90;;;;;;5033122;28;20463;-39
2022/06/27 09:26:35;;;;;;;24.10;19.63;;;18.70;99.90;;;;;;5033243;28;20508;-39
2022/06/27 09:29:09;;;;;;;20.20;18.07;;;18.60;99.90;;;;;;5032687;28;20816;-40
2022/06/27 09:31:39;;;;;;;23.13;20.00;;;18.60;99.90;;;;;;5033137;28;20420;-39
2022/06/27 09:34:19;;;;;;;22.73;20.53;;;18.60;99.90;;;;;;5033006;28;20448;-39
2022/06/27 09:36:53;;;;;;;22.00;19.40;;;18.60;99.90;;;;;;5032575;28;20432;-40
2022/06/27 09:39:29;;;;;;;23.87;17.37;;;18.70;99.90;;;;;;5032992;28;20464;-39
2022/06/27 09:42:04;;;;;;;18.97;16.93;;;18.70;99.90;;;;;;5032631;28;20436;-39
2022/06/27 09:44:42;;;;;;;18.00;16.20;;;18.70;99.90;;;;;;5031442;28;20424;-39
2022/06/27 09:47:15;;;;;;;19.97;18.00;;;18.80;99.90;;;;;;5032104;28;20424;-39
2022/06/27 09:49:44;;;;;;;18.20;16.30;;;18.90;99.90;;;;;;5032730;28;21033;-40
2022/06/27 09:52:22;;;;;;;20.97;18.50;;;18.90;99.90;;;;;;5032308;28;20417;-39
2022/06/27 09:54:50;;;;;;;14.60;13.20;;;19.00;99.90;;;;;;5032785;28;20432;-40
2022/06/27 09:57:18;;;;;;;15.43;13.57;;;19.10;99.90;;;;;;5031937;28;20433;-39
2022/06/27 09:59:46;;;;;;;16.17;14.60;;;19.20;99.90;;;;;;5032325;28;20433;-39
2022/06/27 10:02:16;;;;;;;16.10;14.60;;;19.10;99.90;;;;;;5032471;28;20479;-39
2022/06/27 10:04:43;;;;;;;17.73;15.93;;;19.20;99.90;;;;;;5032159;28;20458;-39
2022/06/27 10:07:11;;;;;;;15.87;14.37;;;19.20;99.90;;;;;;5031756;28;20915;-39
2022/06/27 10:09:38;;;;;;;15.00;13.43;;;19.20;99.90;;;;;;5032371;28;20473;-36
2022/06/27 10:12:34;;;;;;;17.83;14.97;;;19.20;99.90;;;;;;5032306;28;20440;-39
2022/06/27 10:15:12;;;;;;;16.43;14.73;;;19.30;99.90;;;;;;5032152;28;20453;-39
2022/06/27 10:17:42;;;;;;;12.80;11.47;;;19.30;99.90;;;;;;5031593;28;20824;-39
2022/06/27 10:20:15;;;;;;;13.63;12.33;;;19.30;99.90;;;;;;5032278;28;20421;-40
2022/06/27 10:22:42;;;;;;;16.00;13.67;;;19.30;99.90;;;;;;5032326;28;20421;-40
2022/06/27 10:25:26;;;;;;;16.17;14.47;;;19.30;99.90;;;;;;5032180;28;20457;-39
2022/06/27 10:28:10;;;;;;;14.97;13.47;;;19.40;99.90;;;;;;5031404;28;20425;-39
2022/06/27 10:30:38;;;;;;;14.20;12.80;;;19.50;99.90;;;;;;5030998;28;20428;-39
2022/06/27 10:33:25;;;;;;;18.60;16.80;;;19.60;99.90;;;;;;5031892;28;20455;-39
2022/06/27 10:36:01;;;;;;;15.40;14.00;;;19.70;99.90;;;;;;5031860;28;20421;-42
2022/06/27 10:38:33;;;;;;;18.30;16.43;;;19.70;99.90;;;;;;5031243;28;20461;-39
2022/06/27 10:41:01;;;;;;;17.23;15.30;;;19.70;99.90;;;;;;5031843;28;20457;-39
2022/06/27 10:43:36;;;;;;;14.10;12.80;;;19.80;99.90;;;;;;5031724;28;20424;-39
2022/06/27 10:46:10;;;;;;;16.50;14.80;;;19.90;99.90;;;;;;5030395;28;20432;-39
2022/06/27 10:48:54;;;;;;;17.20;15.60;;;20.10;99.90;;;;;;5030777;28;20528;-41
2022/06/27 10:51:28;;;;;;;18.07;16.30;;;20.10;99.90;;;;;;5031834;28;20413;-39
2022/06/27 10:54:20;;;;;;;16.13;14.57;;;20.10;99.90;;;;;;5031619;28;20425;-39
2022/06/27 10:56:51;;;;;;;18.77;17.07;;;20.20;99.90;;;;;;5028531;28;20433;-39
2022/06/27 10:59:17;;;;;;;18.83;17.03;;;20.00;99.90;;;;;;5031435;28;20495;-40
2022/06/27 11:01:57;;;;;;;18.57;16.87;;;19.90;99.90;;;;;;5031314;28;20818;-39
2022/06/27 11:04:34;;;;;;;19.20;17.27;;;19.80;99.90;;;;;;5031387;28;20538;-39
2022/06/27 11:07:05;;;;;;;16.70;15.20;;;19.80;99.90;;;;;;5030589;28;20455;-39
2022/06/27 11:09:37;;;;;;;17.23;15.63;;;19.70;99.90;;;;;;5031478;28;20875;-39
2022/06/27 11:12:04;;;;;;;20.03;18.13;;;19.80;99.90;;;;;;5031165;28;20430;-39
2022/06/27 11:14:30;;;;;;;21.63;19.60;;;19.80;99.90;;;;;;5029871;28;20432;-39
2022/06/27 11:16:56;;;;;;;23.60;21.37;;;19.90;99.90;;;;;;5030516;28;20880;-39
2022/06/27 11:22:22;;;;;;;24.27;21.80;;;19.90;99.90;;;;;;5031446;28;20220;-39
2022/06/27 11:24:50;;;;;;;26.50;23.80;;;19.80;99.90;;;;;;5030979;28;20429;-39
2022/06/27 11:27:16;;;;;;;24.43;22.03;;;19.80;99.90;;;;;;5030134;28;20417;-40
2022/06/27 11:32:33;;;;;;;25.57;22.90;;;19.80;99.90;;;;;;5027394;28;20562;-40
2022/06/27 11:35:00;;;;;;;25.70;23.03;;;19.90;99.90;;;;;;5030894;28;20596;-39
2022/06/27 11:37:30;;;;;;;24.53;22.03;;;20.00;99.90;;;;;;5029962;28;20441;-40
2022/06/27 11:40:08;;;;;;;23.40;21.10;;;20.10;99.90;;;;;;5030425;28;20444;-39
2022/06/27 11:42:35;;;;;;;23.87;21.50;;;20.10;99.90;;;;;;5029421;28;20491;-41
2022/06/27 11:45:02;;;;;;;24.10;21.80;;;20.00;99.90;;;;;;5028423;28;20425;-40
2022/06/27 11:47:28;;;;;;;25.87;23.17;;;20.00;99.90;;;;;;5029713;28;20451;-40
2022/06/27 11:50:08;;;;;;;29.07;26.20;;;20.00;99.90;;;;;;5030316;28;20468;-39
2022/06/27 11:52:49;;;;;;;28.00;25.13;;;20.10;99.90;;;;;;5030446;28;20512;-39
2022/06/27 11:55:20;;;;;;;28.67;25.57;;;20.10;99.90;;;;;;5030094;28;20433;-39
2022/06/27 11:57:51;;;;;;;28.80;25.77;;;20.00;99.90;;;;;;5029761;28;20447;-41
2022/06/27 12:00:26;;;;;;;26.40;23.70;;;20.00;99.90;;;;;;5029982;28;20503;-39
2022/06/27 12:03:08;;;;;;;27.43;24.73;;;20.10;99.90;;;;;;5030397;28;20424;-39
2022/06/27 12:05:36;;;;;;;26.67;24.07;;;20.00;99.90;;;;;;5029951;28;20470;-39
2022/06/27 12:08:05;;;;;;;26.63;23.90;;;20.10;99.90;;;;;;5029680;28;20935;-39
2022/06/27 12:10:39;;;;;;;25.33;22.90;;;20.10;99.90;;;;;;5030202;28;20792;-39
2022/06/27 12:13:10;;;;;;;28.00;25.30;;;20.10;99.90;;;;;;5030158;28;20425;-39
2022/06/27 12:15:38;;;;;;;27.70;25.10;;;20.10;99.90;;;;;;5030100;28;20472;-40
2022/06/27 12:18:05;;;;;;;27.90;25.20;;;20.10;99.90;;;;;;5029277;28;20425;-39
2022/06/27 12:20:33;;;;;;;24.77;22.33;;;20.10;99.90;;;;;;5030131;28;20429;-39
2022/06/27 12:23:00;;;;;;;27.80;25.10;;;20.10;99.90;;;;;;5030354;28;20448;-40
2022/06/27 12:25:26;;;;;;;29.67;26.50;;;20.20;99.90;;;;;;5029943;28;20525;-39
2022/06/27 12:27:53;;;;;;;26.63;24.13;;;20.30;99.90;;;;;;5029357;28;20440;-39
2022/06/27 12:30:19;;;;;;;27.37;24.60;;;20.50;99.90;;;;;;5028545;28;20920;-40
2022/06/27 12:32:44;;;;;;;25.70;23.30;;;20.50;99.90;;;;;;5029671;28;20482;-39
2022/06/27 12:35:11;;;;;;;26.50;24.00;;;20.70;99.90;;;;;;5030007;28;20755;-39
2022/06/27 12:37:37;;;;;;;25.10;22.80;;;20.80;99.90;;;;;;5029107;28;20232;-39
2022/06/27 12:40:05;;;;;;;25.90;23.40;;;20.90;99.90;;;;;;5029931;28;20436;-40
2022/06/27 12:42:31;;;;;;;26.13;23.70;;;21.10;99.90;;;;;;5029686;28;20425;-40
2022/06/27 12:44:57;;;;;;;29.27;26.47;;;21.10;99.90;;;;;;5028376;28;20444;-39
2022/06/27 12:47:23;;;;;;;26.17;23.57;;;21.10;99.90;;;;;;5028827;28;20425;-39
2022/06/27 12:49:50;;;;;;;24.57;22.37;;;21.10;99.90;;;;;;5029572;28;20215;-39
2022/06/27 12:52:16;;;;;;;24.43;21.90;;;21.10;99.90;;;;;;5029571;28;20444;-39